createdAt,value
2016-05-17T00:00:59.265Z,52.61
2016-05-17T00:01:59.190Z,53
2016-05-17T00:02:59.350Z,53.19
2016-05-17T00:03:59.086Z,53.38
2016-05-17T00:05:02.058Z,52.8
2016-05-17T00:06:02.216Z,53
2016-05-17T00:07:01.938Z,53.41
2016-05-17T00:08:02.128Z,52.71
2016-05-17T00:08:58.849Z,52.73
2016-05-17T00:10:01.789Z,53.21
2016-05-17T00:10:58.730Z,53.31
2016-05-17T00:12:01.702Z,53.5
2016-05-17T00:13:01.486Z,53.31
2016-05-17T00:13:58.582Z,53.38
2016-05-17T00:15:01.585Z,53.19
2016-05-17T00:16:01.493Z,53
2016-05-17T00:16:58.433Z,53.09
2016-05-17T00:18:01.390Z,53
2016-05-17T00:18:58.345Z,53.19
2016-05-17T00:20:01.286Z,53
2016-05-17T00:21:01.241Z,53
2016-05-17T00:21:58.182Z,53
2016-05-17T00:23:01.138Z,53.19
2016-05-17T00:24:01.093Z,53.19
2016-05-17T00:24:58.049Z,53.09
2016-05-17T00:25:58.020Z,53.21
2016-05-17T00:26:57.929Z,53.21
2016-05-17T00:28:04.120Z,53.12
2016-05-17T00:28:58.029Z,53.21
2016-05-17T00:29:57.781Z,53.02
2016-05-17T00:31:03.753Z,53.12
2016-05-17T00:32:00.677Z,53.21
2016-05-17T00:32:57.634Z,53.5
2016-05-17T00:34:00.604Z,53.19
2016-05-17T00:34:57.544Z,53.28
2016-05-17T00:35:57.484Z,53.66
2016-05-17T00:37:03.472Z,53.47
2016-05-17T00:37:57.381Z,53.47
2016-05-17T00:38:57.540Z,53.95
2016-05-17T00:40:00.292Z,53.47
2016-05-17T00:40:57.233Z,53.47
2016-05-17T00:42:00.188Z,54.04
2016-05-17T00:43:00.144Z,53.95
2016-05-17T00:43:57.085Z,53.47
2016-05-17T00:44:57.041Z,53.56
2016-05-17T00:45:56.981Z,53.85
2016-05-17T00:46:59.952Z,53.66
2016-05-17T00:47:59.908Z,53.85
2016-05-17T00:48:56.817Z,54.14
2016-05-17T00:50:00.007Z,54.14
2016-05-17T00:50:56.931Z,53.95
2016-05-17T00:51:56.543Z,54.04
2016-05-17T00:52:56.624Z,54.04
2016-05-17T00:53:59.580Z,53.95
2016-05-17T00:54:56.520Z,54.04
2016-05-17T00:56:02.492Z,53.85
2016-05-17T00:56:59.448Z,54.33
2016-05-17T00:57:56.418Z,54.52
2016-05-17T00:58:59.343Z,54.52
2016-05-17T00:59:56.284Z,54.52
2016-05-17T01:00:56.224Z,54.43
2016-05-17T01:01:59.227Z,54.14
2016-05-17T01:02:56.136Z,54.52
2016-05-17T01:03:56.076Z,54.04
2016-05-17T01:04:56.016Z,53.85
2016-05-17T01:05:55.972Z,54.04
2016-05-17T01:06:56.224Z,53.95
2016-05-17T01:08:01.931Z,53.95
2016-05-17T01:08:55.667Z,54.04
2016-05-17T01:09:55.764Z,53.95
2016-05-17T01:10:58.736Z,54.14
2016-05-17T01:12:07.706Z,54.04
2016-05-17T01:13:01.647Z,54.43
2016-05-17T01:13:55.572Z,53.95
2016-05-17T01:14:55.730Z,54.33
2016-05-17T01:15:58.467Z,54.24
2016-05-17T01:16:55.627Z,54.43
2016-05-17T01:18:01.802Z,53.95
2016-05-17T01:18:55.319Z,54.04
2016-05-17T01:19:55.291Z,53.76
2016-05-17T01:20:55.216Z,53.95
2016-05-17T01:21:58.187Z,54.04
2016-05-17T01:22:57.971Z,53.95
2016-05-17T01:23:55.270Z,53.76
2016-05-17T01:24:55.070Z,54.04
2016-05-17T01:25:54.963Z,54.04
2016-05-17T01:26:58.138Z,53.95
2016-05-17T01:27:54.718Z,54.43
2016-05-17T01:28:57.815Z,54.24
2016-05-17T01:29:57.645Z,54.04
2016-05-17T01:30:54.726Z,54.04
2016-05-17T01:31:54.667Z,54.33
2016-05-17T01:32:54.450Z,54.24
2016-05-17T01:33:54.563Z,53.95
2016-05-17T01:34:54.534Z,53.95
2016-05-17T01:35:54.678Z,53.76
2016-05-17T01:36:55.071Z,54.14
2016-05-17T01:37:54.573Z,54.14
2016-05-17T01:38:54.389Z,54.14
2016-05-17T01:39:54.281Z,54.04
2016-05-17T01:40:54.206Z,54.24
2016-05-17T01:41:54.162Z,53.95
2016-05-17T01:42:54.103Z,53.56
2016-05-17T01:43:54.277Z,53.56
2016-05-17T01:44:54.045Z,53.66
2016-05-17T01:45:53.954Z,53.66
2016-05-17T01:46:54.113Z,53.56
2016-05-17T01:47:53.850Z,53.66
2016-05-17T01:48:53.821Z,53.76
2016-05-17T01:49:56.981Z,53.76
2016-05-17T01:50:56.702Z,53.76
2016-05-17T01:51:56.971Z,53.66
2016-05-17T01:52:53.599Z,53.19
2016-05-17T01:53:53.569Z,53.38
2016-05-17T01:54:53.510Z,53.76
2016-05-17T01:55:53.309Z,53.85
2016-05-17T01:56:59.452Z,53.66
2016-05-17T01:57:53.346Z,53.95
2016-05-17T01:58:56.162Z,53.19
2016-05-17T01:59:53.257Z,53.66
2016-05-17T02:00:56.417Z,53.95
2016-05-17T02:02:05.185Z,53.85
2016-05-17T02:02:53.093Z,53.85
2016-05-17T02:03:53.268Z,53.56
2016-05-17T02:04:53.005Z,53.66
2016-05-17T02:05:55.977Z,54.14
2016-05-17T02:06:59.104Z,54.04
2016-05-17T02:07:52.857Z,54.14
2016-05-17T02:08:55.814Z,54.04
2016-05-17T02:09:52.581Z,53.95
2016-05-17T02:10:52.725Z,53.95
2016-05-17T02:11:52.665Z,54.52
2016-05-17T02:12:52.808Z,54.71
2016-05-17T02:13:52.545Z,54.61
2016-05-17T02:14:52.501Z,54.61
2016-05-17T02:15:55.457Z,54.8
2016-05-17T02:16:55.413Z,54.8
2016-05-17T02:17:52.556Z,54.8
2016-05-17T02:18:52.308Z,54.8
2016-05-17T02:19:52.234Z,54.8
2016-05-17T02:20:52.391Z,54.61
2016-05-17T02:21:52.144Z,54.71
2016-05-17T02:22:52.085Z,54.71
2016-05-17T02:23:52.088Z,54.71
2016-05-17T02:24:51.825Z,54.8
2016-05-17T02:25:51.952Z,54.8
2016-05-17T02:26:51.893Z,54.8
2016-05-17T02:27:51.896Z,55
2016-05-17T02:28:51.804Z,54.59
2016-05-17T02:29:51.745Z,54.71
2016-05-17T02:30:51.685Z,54.33
2016-05-17T02:31:51.485Z,54.71
2016-05-17T02:32:51.424Z,54.8
2016-05-17T02:33:51.537Z,54.71
2016-05-17T02:34:51.758Z,54.8
2016-05-17T02:35:51.495Z,54.71
2016-05-17T02:36:54.466Z,54.8
2016-05-17T02:37:51.204Z,54.8
2016-05-17T02:38:54.300Z,54.8
2016-05-17T02:39:51.303Z,54.52
2016-05-17T02:40:51.400Z,55.09
2016-05-17T02:41:50.980Z,55.38
2016-05-17T02:42:51.092Z,55.16
2016-05-17T02:43:51.032Z,55.19
2016-05-17T02:44:50.988Z,55.35
2016-05-17T02:45:54.006Z,55.07
2016-05-17T02:46:50.884Z,55.16
2016-05-17T02:47:50.840Z,55.44
2016-05-17T02:48:50.983Z,55.83
2016-05-17T02:49:53.719Z,56.02
2016-05-17T02:50:50.676Z,55.44
2016-05-17T02:51:50.476Z,55.73
2016-05-17T02:52:53.588Z,55.83
2016-05-17T02:53:50.544Z,55.54
2016-05-17T02:54:50.530Z,55.73
2016-05-17T02:55:53.440Z,55.73
2016-05-17T02:56:53.224Z,55.73
2016-05-17T02:57:56.554Z,55.63
2016-05-17T02:58:53.260Z,56.11
2016-05-17T02:59:50.732Z,56.3
2016-05-17T03:00:50.188Z,56.21
2016-05-17T03:01:50.127Z,56.3
2016-05-17T03:02:53.084Z,56.4
2016-05-17T03:03:53.007Z,56.3
2016-05-17T03:04:52.964Z,56.21
2016-05-17T03:05:49.920Z,56.49
2016-05-17T03:06:49.875Z,56.78
2016-05-17T03:07:49.815Z,56.78
2016-05-17T03:08:49.756Z,56.68
2016-05-17T03:09:52.711Z,56.68
2016-05-17T03:10:49.511Z,56.78
2016-05-17T03:11:52.467Z,56.97
2016-05-17T03:12:49.564Z,56.78
2016-05-17T03:13:49.503Z,56.49
2016-05-17T03:14:49.475Z,56.59
2016-05-17T03:15:49.258Z,56.87
2016-05-17T03:16:52.356Z,57.45
2016-05-17T03:17:49.514Z,57.73
2016-05-17T03:18:49.267Z,58.02
2016-05-17T03:19:52.426Z,57.73
2016-05-17T03:20:49.147Z,58.11
2016-05-17T03:21:52.321Z,57.73
2016-05-17T03:22:55.090Z,58.02
2016-05-17T03:23:51.999Z,57.92
2016-05-17T03:24:48.955Z,57.92
2016-05-17T03:25:51.910Z,58.02
2016-05-17T03:26:51.866Z,57.92
2016-05-17T03:27:48.807Z,57.92
2016-05-17T03:28:51.747Z,58.3
2016-05-17T03:29:51.765Z,57.82
2016-05-17T03:30:48.643Z,58.3
2016-05-17T03:31:51.598Z,58.4
2016-05-17T03:32:48.586Z,58.4
2016-05-17T03:33:48.496Z,58.5
2016-05-17T03:34:51.654Z,58.21
2016-05-17T03:35:48.391Z,58.87
2016-05-17T03:36:51.175Z,58.59
2016-05-17T03:37:48.146Z,58.69
2016-05-17T03:38:48.258Z,58.59
2016-05-17T03:39:54.215Z,58.69
2016-05-17T03:40:48.342Z,59.16
2016-05-17T03:41:48.095Z,58.87
2016-05-17T03:42:48.034Z,59.45
2016-05-17T03:43:48.225Z,59.26
2016-05-17T03:44:50.978Z,59.26
2016-05-17T03:45:47.886Z,59.16
2016-05-17T03:46:47.858Z,59.35
2016-05-17T03:47:50.641Z,59.16
2016-05-17T03:48:47.739Z,59.06
2016-05-17T03:49:47.678Z,59.74
2016-05-17T03:50:50.493Z,59.64
2016-05-17T03:51:47.575Z,59.35
2016-05-17T03:52:47.514Z,59.7
2016-05-17T03:53:53.486Z,59.8
2016-05-17T03:54:50.629Z,60.02
2016-05-17T03:55:47.366Z,59.54
2016-05-17T03:56:50.322Z,59.7
2016-05-17T03:57:47.278Z,60.11
2016-05-17T03:58:50.218Z,59.83
2016-05-17T03:59:47.174Z,60.4
2016-05-17T04:00:50.130Z,59.99
2016-05-17T04:01:46.913Z,59.8
2016-05-17T04:02:47.026Z,60.02
2016-05-17T04:03:46.950Z,60.21
2016-05-17T04:04:46.907Z,59.74
2016-05-17T04:05:46.879Z,60.02
2016-05-17T04:06:46.646Z,59.16
2016-05-17T04:07:49.759Z,60.21
2016-05-17T04:08:46.714Z,59.83
2016-05-17T04:09:46.514Z,60.56
2016-05-17T04:10:46.594Z,60.18
2016-05-17T04:11:46.565Z,60.11
2016-05-17T04:12:46.522Z,60.11
2016-05-17T04:13:46.462Z,60.4
2016-05-17T04:14:49.433Z,60.11
2016-05-17T04:15:49.201Z,60.27
2016-05-17T04:16:49.314Z,60.27
2016-05-17T04:17:52.269Z,60.27
2016-05-17T04:18:46.209Z,60.08
2016-05-17T04:19:46.446Z,60.4
2016-05-17T04:20:46.090Z,60.78
2016-05-17T04:21:55.375Z,60.4
2016-05-17T04:22:46.205Z,60.02
2016-05-17T04:23:45.958Z,60.21
2016-05-17T04:24:45.897Z,60.21
2016-05-17T04:25:45.885Z,60.27
2016-05-17T04:26:45.777Z,60.88
2016-05-17T04:27:48.749Z,60.69
2016-05-17T04:28:45.690Z,60.88
2016-05-17T04:29:45.693Z,60.59
2016-05-17T04:30:51.445Z,60.21
2016-05-17T04:31:48.541Z,60.4
2016-05-17T04:32:45.341Z,60.4
2016-05-17T04:33:45.281Z,60.49
2016-05-17T04:34:48.581Z,60.69
2016-05-17T04:35:45.333Z,60.56
2016-05-17T04:36:45.290Z,60.69
2016-05-17T04:37:45.230Z,60.59
2016-05-17T04:38:48.185Z,60.37
2016-05-17T04:39:48.141Z,60.49
2016-05-17T04:40:45.284Z,60.94
2016-05-17T04:41:45.037Z,60.94
2016-05-17T04:42:48.180Z,60.75
2016-05-17T04:43:44.948Z,60.85
2016-05-17T04:44:45.061Z,60.49
2016-05-17T04:45:48.017Z,60.69
2016-05-17T04:46:44.598Z,60.59
2016-05-17T04:47:44.725Z,60.02
2016-05-17T04:48:44.665Z,60.11
2016-05-17T04:49:47.621Z,60.21
2016-05-17T04:50:47.577Z,59.83
2016-05-17T04:51:44.751Z,60.11
2016-05-17T04:52:47.473Z,59.92
2016-05-17T04:53:44.414Z,60.02
2016-05-17T04:54:44.353Z,59.64
2016-05-17T04:55:44.309Z,59.92
2016-05-17T04:56:47.265Z,59.83
2016-05-17T04:57:44.252Z,59.64
2016-05-17T04:58:47.177Z,59.54
2016-05-17T04:59:44.335Z,59.83
2016-05-17T05:00:44.072Z,59.26
2016-05-17T05:01:43.919Z,59.16
2016-05-17T05:02:43.953Z,59.16
2016-05-17T05:03:46.971Z,59.26
2016-05-17T05:04:43.849Z,58.87
2016-05-17T05:05:43.804Z,58.97
2016-05-17T05:06:43.760Z,58.87
2016-05-17T05:07:43.700Z,59.16
2016-05-17T05:08:46.672Z,58.78
2016-05-17T05:09:46.618Z,58.4
2016-05-17T05:10:46.476Z,58.87
2016-05-17T05:11:43.600Z,58.24
2016-05-17T05:12:46.583Z,58.14
2016-05-17T05:13:43.597Z,58.5
2016-05-17T05:14:43.582Z,58.5
2016-05-17T05:15:43.366Z,58.04
2016-05-17T05:16:43.494Z,58.24
2016-05-17T05:17:49.480Z,57.76
2016-05-17T05:18:43.437Z,58.24
2016-05-17T05:19:46.403Z,58.04
2016-05-17T05:20:49.364Z,57.86
2016-05-17T05:21:43.138Z,57.76
2016-05-17T05:22:43.099Z,58.04
2016-05-17T05:23:43.199Z,58.14
2016-05-17T05:24:43.144Z,58.14
2016-05-17T05:25:42.977Z,57.76
2016-05-17T05:26:43.076Z,57.57
2016-05-17T05:27:46.017Z,58.14
2016-05-17T05:28:42.960Z,57.82
2016-05-17T05:29:45.917Z,57.73
2016-05-17T05:30:43.389Z,57.54
2016-05-17T05:31:42.829Z,57.76
2016-05-17T05:32:42.599Z,57.76
2016-05-17T05:33:45.915Z,57.38
2016-05-17T05:34:42.652Z,57.67
2016-05-17T05:35:42.812Z,57.67
2016-05-17T05:36:51.440Z,57.57
2016-05-17T05:37:42.505Z,57.28
2016-05-17T05:38:45.477Z,57.28
2016-05-17T05:39:45.277Z,57.19
2016-05-17T05:40:42.373Z,57.19
2016-05-17T05:41:45.313Z,57.19
2016-05-17T05:42:42.254Z,56.62
2016-05-17T05:43:42.210Z,56.62
2016-05-17T05:44:42.181Z,56.81
2016-05-17T05:45:42.106Z,56.71
2016-05-17T05:46:42.062Z,56.62
2016-05-17T05:47:45.017Z,56.81
2016-05-17T05:48:41.958Z,56.81
2016-05-17T05:49:41.897Z,56.52
2016-05-17T05:50:41.869Z,56.81
2016-05-17T05:51:41.668Z,56.62
2016-05-17T05:52:44.781Z,56.71
2016-05-17T05:53:41.706Z,56.43
2016-05-17T05:54:44.646Z,56.62
2016-05-17T05:55:44.601Z,56.52
2016-05-17T05:56:41.386Z,56.43
2016-05-17T05:57:44.514Z,55.76
2016-05-17T05:58:44.453Z,55.66
2016-05-17T05:59:44.409Z,55.85
2016-05-17T06:00:44.365Z,55.57
2016-05-17T06:01:41.477Z,55.66
2016-05-17T06:02:41.277Z,55.76
2016-05-17T06:03:41.201Z,55.85
2016-05-17T06:04:41.141Z,55.66
2016-05-17T06:05:41.113Z,55.28
2016-05-17T06:06:41.537Z,55.47
2016-05-17T06:07:40.993Z,55.47
2016-05-17T06:08:43.949Z,55.28
2016-05-17T06:09:43.764Z,55.47
2016-05-17T06:10:40.860Z,55.09
2016-05-17T06:11:40.988Z,55
2016-05-17T06:12:43.756Z,54.61
2016-05-17T06:13:43.915Z,54.8
2016-05-17T06:14:43.652Z,54.71
2016-05-17T06:15:41.093Z,54.33
2016-05-17T06:16:40.548Z,54.8
2016-05-17T06:17:40.504Z,54.36
2016-05-17T06:18:40.648Z,54.83
2016-05-17T06:19:40.400Z,54.45
2016-05-17T06:20:40.341Z,54.55
2016-05-17T06:21:40.312Z,54.45
2016-05-17T06:22:43.267Z,54.36
2016-05-17T06:23:43.223Z,54.52
2016-05-17T06:24:40.320Z,54.36
2016-05-17T06:25:40.104Z,53.97
2016-05-17T06:26:40.029Z,53.97
2016-05-17T06:27:43.204Z,54.17
2016-05-17T06:28:39.939Z,54.17
2016-05-17T06:29:39.881Z,54.07
2016-05-17T06:30:39.852Z,54.07
2016-05-17T06:31:42.792Z,53.97
2016-05-17T06:32:42.733Z,54.07
2016-05-17T06:33:45.720Z,54.26
2016-05-17T06:34:39.628Z,54.07
2016-05-17T06:35:39.584Z,53.88
2016-05-17T06:36:42.556Z,53.69
2016-05-17T06:37:42.496Z,53.69
2016-05-17T06:38:39.436Z,53.88
2016-05-17T06:39:39.376Z,54.07
2016-05-17T06:40:39.332Z,53.88
2016-05-17T06:41:39.288Z,53.88
2016-05-17T06:42:39.244Z,54.07
2016-05-17T06:43:39.183Z,54.26
2016-05-17T06:44:42.155Z,54.26
2016-05-17T06:45:41.971Z,53.88
2016-05-17T06:46:39.035Z,53.59
2016-05-17T06:47:42.038Z,53.59
2016-05-17T06:48:47.962Z,53.69
2016-05-17T06:49:38.887Z,53.69
2016-05-17T06:50:38.843Z,53.97
2016-05-17T06:51:38.799Z,53.88
2016-05-17T06:52:38.817Z,53.69
2016-05-17T06:53:38.679Z,53.69
2016-05-17T06:54:38.651Z,53.97
2016-05-17T06:55:38.606Z,53.78
2016-05-17T06:56:38.531Z,53.69
2016-05-17T06:57:38.486Z,53.41
2016-05-17T06:58:41.787Z,53.41
2016-05-17T06:59:38.398Z,53.02
2016-05-17T07:00:38.339Z,53.41
2016-05-17T07:01:38.294Z,53.02
2016-05-17T07:02:38.234Z,53.21
2016-05-17T07:03:41.206Z,53.21
2016-05-17T07:04:38.146Z,52.73
2016-05-17T07:05:41.086Z,52.83
2016-05-17T07:06:38.058Z,53.31
2016-05-17T07:07:40.998Z,53.02
2016-05-17T07:08:37.938Z,52.73
2016-05-17T07:09:37.738Z,52.73
2016-05-17T07:10:37.834Z,52.45
2016-05-17T07:11:37.790Z,52.26
2016-05-17T07:12:40.855Z,52.76
2016-05-17T07:13:40.702Z,52.48
2016-05-17T07:14:40.657Z,52.19
2016-05-17T07:15:37.816Z,52
2016-05-17T07:16:37.382Z,51.9
2016-05-17T07:17:40.510Z,52
2016-05-17T07:18:51.559Z,51.62
2016-05-17T07:19:40.390Z,52.19
2016-05-17T07:20:37.579Z,51.81
2016-05-17T07:21:37.754Z,50.98
2016-05-17T07:22:37.257Z,50.98
2016-05-17T07:23:37.400Z,50.59
2016-05-17T07:24:37.154Z,50.69
2016-05-17T07:25:40.109Z,50.59
2016-05-17T07:26:37.081Z,50.69
2016-05-17T07:27:37.037Z,50.4
2016-05-17T07:28:36.945Z,50.59
2016-05-17T07:29:36.917Z,49.93
2016-05-17T07:30:36.841Z,50.31
2016-05-17T07:31:36.797Z,49.64
2016-05-17T07:32:36.753Z,49.54
2016-05-17T07:33:36.725Z,49.16
2016-05-17T07:34:36.711Z,49.07
2016-05-17T07:35:39.620Z,48.78
2016-05-17T07:36:36.623Z,48.68
2016-05-17T07:37:42.532Z,48.21
2016-05-17T07:38:36.316Z,48.59
2016-05-17T07:39:39.413Z,48.68
2016-05-17T07:40:39.383Z,48.59
2016-05-17T07:41:39.324Z,48.3
2016-05-17T07:42:36.249Z,47.82
2016-05-17T07:43:36.204Z,47.73
2016-05-17T07:44:36.160Z,47.63
2016-05-17T07:45:39.115Z,47.54
2016-05-17T07:46:36.072Z,47.34
2016-05-17T07:47:36.388Z,47.73
2016-05-17T07:48:41.983Z,47.34
2016-05-17T07:49:41.940Z,47.16
2016-05-17T07:50:35.910Z,47.06
2016-05-17T07:51:35.866Z,47.16
2016-05-17T07:52:36.104Z,46.97
2016-05-17T07:53:38.731Z,46.97
2016-05-17T07:54:35.765Z,46.77
2016-05-17T07:55:35.626Z,46.61
2016-05-17T07:56:41.818Z,46.61
2016-05-17T07:57:35.554Z,46.7
2016-05-17T07:58:38.542Z,46.99
2016-05-17T07:59:38.857Z,46.61
2016-05-17T08:00:38.234Z,46.51
2016-05-17T08:01:35.315Z,46.61
2016-05-17T08:02:35.303Z,46.51
2016-05-17T08:03:38.086Z,46.13
2016-05-17T08:04:35.214Z,45.94
2016-05-17T08:05:35.325Z,45.84
2016-05-17T08:06:37.923Z,45.56
2016-05-17T08:07:35.331Z,45.84
2016-05-17T08:08:34.990Z,45.77
2016-05-17T08:09:35.150Z,45.94
2016-05-17T08:10:35.105Z,45.48
2016-05-17T08:11:34.905Z,45.77
2016-05-17T08:12:34.642Z,45.77
2016-05-17T08:13:34.785Z,45.58
2016-05-17T08:14:34.710Z,45.29
2016-05-17T08:15:34.649Z,45.2
2016-05-17T08:16:34.824Z,45.39
2016-05-17T08:17:34.749Z,45.1
2016-05-17T08:18:34.345Z,45.2
2016-05-17T08:19:34.535Z,45.29
2016-05-17T08:20:37.413Z,45.29
2016-05-17T08:21:37.681Z,45.2
2016-05-17T08:22:34.154Z,45.29
2016-05-17T08:23:34.265Z,45.58
2016-05-17T08:24:37.205Z,45.48
2016-05-17T08:25:40.536Z,45.2
2016-05-17T08:26:34.195Z,45.2
2016-05-17T08:27:37.057Z,45.1
2016-05-17T08:28:34.090Z,45.2
2016-05-17T08:29:36.984Z,44.84
2016-05-17T08:30:34.206Z,44.55
2016-05-17T08:31:33.881Z,44.45
2016-05-17T08:32:38.273Z,43.88
2016-05-17T08:33:33.776Z,43.5
2016-05-17T08:34:33.982Z,43.4
2016-05-17T08:35:33.704Z,42.93
2016-05-17T08:36:33.847Z,42.93
2016-05-17T08:37:33.615Z,42.85
2016-05-17T08:38:33.572Z,42.64
2016-05-17T08:39:36.589Z,42.94
2016-05-17T08:40:34.498Z,42.37
2016-05-17T08:41:36.392Z,42.27
2016-05-17T08:42:36.582Z,42.18
2016-05-17T08:43:39.366Z,41.7
2016-05-17T08:44:33.446Z,41.51
2016-05-17T08:45:33.074Z,40.95
2016-05-17T08:46:33.155Z,41.15
2016-05-17T08:47:33.096Z,41.24
2016-05-17T08:48:33.066Z,40.67
2016-05-17T08:49:32.991Z,40.19
2016-05-17T08:50:32.946Z,39.92
2016-05-17T08:51:33.106Z,40.02
2016-05-17T08:52:32.874Z,39.92
2016-05-17T08:53:32.658Z,39.06
2016-05-17T08:54:32.771Z,38.78
2016-05-17T08:55:36.742Z,38.68
2016-05-17T08:56:32.916Z,38.39
2016-05-17T08:57:35.654Z,38.1
2016-05-17T08:58:32.796Z,37.82
2016-05-17T08:59:35.799Z,38.1
2016-05-17T09:00:32.490Z,37.82
2016-05-17T09:01:32.445Z,37.63
2016-05-17T09:02:32.854Z,37.43
2016-05-17T09:03:32.356Z,37.53
2016-05-17T09:04:32.797Z,37.05
2016-05-17T09:05:32.472Z,37.05
2016-05-17T09:06:32.333Z,37.16
2016-05-17T09:07:32.383Z,36.98
2016-05-17T09:08:32.448Z,36.79
2016-05-17T09:09:35.233Z,36.88
2016-05-17T09:10:32.298Z,36.21
2016-05-17T09:11:32.160Z,36.59
2016-05-17T09:12:40.772Z,36.4
2016-05-17T09:13:36.415Z,36.4
2016-05-17T09:14:34.840Z,36.49
2016-05-17T09:15:31.639Z,36.11
2016-05-17T09:16:34.720Z,35.92
2016-05-17T09:17:31.676Z,36.21
2016-05-17T09:18:34.835Z,36.02
2016-05-17T09:19:31.806Z,36.21
2016-05-17T09:20:31.574Z,36.11
2016-05-17T09:21:31.624Z,36.02
2016-05-17T09:22:31.768Z,36.02
2016-05-17T09:23:34.427Z,35.63
2016-05-17T09:24:31.585Z,35.73
2016-05-17T09:25:31.291Z,35.35
2016-05-17T09:26:31.310Z,35.53
2016-05-17T09:27:31.234Z,35.55
2016-05-17T09:28:34.377Z,35.36
2016-05-17T09:29:31.130Z,35.46
2016-05-17T09:30:31.086Z,35.08
2016-05-17T09:31:31.042Z,35.27
2016-05-17T09:32:31.185Z,35.46
2016-05-17T09:33:33.938Z,34.79
2016-05-17T09:34:37.143Z,34.59
2016-05-17T09:35:33.850Z,34.41
2016-05-17T09:36:30.868Z,34.41
2016-05-17T09:37:30.808Z,34.31
2016-05-17T09:38:30.842Z,34.5
2016-05-17T09:39:30.673Z,34.31
2016-05-17T09:40:33.675Z,34.5
2016-05-17T09:41:30.584Z,34.22
2016-05-17T09:42:36.556Z,34.12
2016-05-17T09:43:30.699Z,34.22
2016-05-17T09:44:30.733Z,34.12
2016-05-17T09:45:31.016Z,34.12
2016-05-17T09:46:30.550Z,34.22
2016-05-17T09:47:30.288Z,33.45
2016-05-17T09:48:30.227Z,33.92
2016-05-17T09:49:30.433Z,34.12
2016-05-17T09:50:30.077Z,34.02
2016-05-17T09:51:30.158Z,34.12
2016-05-17T09:52:30.286Z,34.12
2016-05-17T09:53:29.899Z,34.22
2016-05-17T09:54:30.040Z,34.22
2016-05-17T09:55:30.279Z,34.12
2016-05-17T09:56:29.875Z,33.64
2016-05-17T09:57:29.846Z,33.56
2016-05-17T09:58:30.208Z,33.56
2016-05-17T09:59:29.726Z,33.37
2016-05-17T10:00:33.370Z,33.08
2016-05-17T10:01:29.654Z,33.75
2016-05-17T10:02:29.640Z,33.65
2016-05-17T10:03:32.737Z,33.56
2016-05-17T10:04:32.521Z,33.37
2016-05-17T10:05:29.508Z,33.47
2016-05-17T10:06:32.948Z,33.08
2016-05-17T10:07:29.498Z,33.39
2016-05-17T10:08:29.517Z,33.47
2016-05-17T10:09:29.128Z,33.37
2016-05-17T10:10:29.490Z,33.47
2016-05-17T10:11:29.477Z,33.48
2016-05-17T10:12:29.200Z,33.09
2016-05-17T10:13:32.108Z,33
2016-05-17T10:14:29.095Z,33.19
2016-05-17T10:15:29.020Z,32.9
2016-05-17T10:16:29.069Z,33.09
2016-05-17T10:17:28.931Z,33
2016-05-17T10:18:28.903Z,32.71
2016-05-17T10:19:29.030Z,32.81
2016-05-17T10:20:28.830Z,32.81
2016-05-17T10:21:28.927Z,32.52
2016-05-17T10:22:31.694Z,32.52
2016-05-17T10:23:28.619Z,32.62
2016-05-17T10:24:28.809Z,32.81
2016-05-17T10:25:31.547Z,32.71
2016-05-17T10:26:31.487Z,32.33
2016-05-17T10:27:31.457Z,32.25
2016-05-17T10:28:28.395Z,32.14
2016-05-17T10:29:28.383Z,32.33
2016-05-17T10:30:28.307Z,32.42
2016-05-17T10:31:28.293Z,32.33
2016-05-17T10:32:28.219Z,32.23
2016-05-17T10:33:28.174Z,32.33
2016-05-17T10:34:28.131Z,32.23
2016-05-17T10:35:28.087Z,32.42
2016-05-17T10:36:29.059Z,32.04
2016-05-17T10:37:28.481Z,31.66
2016-05-17T10:38:30.878Z,31.27
2016-05-17T10:39:27.894Z,31.2
2016-05-17T10:40:30.915Z,31.29
2016-05-17T10:41:27.806Z,31
2016-05-17T10:42:30.811Z,31
2016-05-17T10:43:27.733Z,30.99
2016-05-17T10:44:30.551Z,31.27
2016-05-17T10:45:30.975Z,31.18
2016-05-17T10:46:27.600Z,31.08
2016-05-17T10:47:27.650Z,31.08
2016-05-17T10:48:27.340Z,31.1
2016-05-17T10:49:30.517Z,30.9
2016-05-17T10:50:30.505Z,30.62
2016-05-17T10:51:28.067Z,30.71
2016-05-17T10:52:27.648Z,30.52
2016-05-17T10:53:27.322Z,30.14
2016-05-17T10:54:30.437Z,29.66
2016-05-17T10:55:28.155Z,29.94
2016-05-17T10:56:27.393Z,29.75
2016-05-17T10:57:27.474Z,29.17
2016-05-17T10:58:27.241Z,29.47
2016-05-17T10:59:30.060Z,29.37
2016-05-17T11:00:27.169Z,29.19
2016-05-17T11:01:36.206Z,29.48
2016-05-17T11:02:27.284Z,29.47
2016-05-17T11:03:26.818Z,29.38
2016-05-17T11:04:32.807Z,29.1
2016-05-17T11:05:26.651Z,28.81
2016-05-17T11:06:26.888Z,28.71
2016-05-17T11:07:26.765Z,28.42
2016-05-17T11:08:26.784Z,28.04
2016-05-17T11:09:29.884Z,28.14
2016-05-17T11:10:26.524Z,28.23
2016-05-17T11:11:26.542Z,28.14
2016-05-17T11:12:26.404Z,28.23
2016-05-17T11:13:26.797Z,28.52
2016-05-17T11:14:26.284Z,29.1
2016-05-17T11:15:29.350Z,29.37
2016-05-17T11:16:26.430Z,29.08
2016-05-17T11:17:26.183Z,28.6
2016-05-17T11:18:26.108Z,28.23
2016-05-17T11:19:26.127Z,28.42
2016-05-17T11:20:26.301Z,28.23
2016-05-17T11:21:26.226Z,28.33
2016-05-17T11:22:29.524Z,28.33
2016-05-17T11:23:28.887Z,28.33
2016-05-17T11:24:28.859Z,28.23
2016-05-17T11:25:25.783Z,28.33
2016-05-17T11:26:25.739Z,27.84
2016-05-17T11:27:25.570Z,27.47
2016-05-17T11:28:31.685Z,27.66
2016-05-17T11:29:29.029Z,27.27
2016-05-17T11:30:28.421Z,27.27
2016-05-17T11:31:25.534Z,27.27
2016-05-17T11:32:25.505Z,27.27
2016-05-17T11:33:31.432Z,27.47
2016-05-17T11:34:31.498Z,27.56
2016-05-17T11:35:28.388Z,27.47
2016-05-17T11:36:25.532Z,27.17
2016-05-17T11:37:25.440Z,27.56
2016-05-17T11:38:25.458Z,27.37
2016-05-17T11:39:25.477Z,27.37
2016-05-17T11:40:25.151Z,27.27
2016-05-17T11:41:24.904Z,27.27
2016-05-17T11:42:28.470Z,27.37
2016-05-17T11:43:25.269Z,27.56
2016-05-17T11:44:24.928Z,27.56
2016-05-17T11:45:28.258Z,27.37
2016-05-17T11:46:24.839Z,27.56
2016-05-17T11:47:24.842Z,27.27
2016-05-17T11:48:24.751Z,27.38
2016-05-17T11:49:24.597Z,27.27
2016-05-17T11:50:27.772Z,27.27
2016-05-17T11:51:24.634Z,27.75
2016-05-17T11:52:25.043Z,27.56
2016-05-17T11:53:24.530Z,27.56
2016-05-17T11:54:27.517Z,27.47
2016-05-17T11:55:24.441Z,27.17
2016-05-17T11:56:24.616Z,26.89
2016-05-17T11:57:24.338Z,26.68
2016-05-17T11:58:24.543Z,26.68
2016-05-17T11:59:24.266Z,26.39
2016-05-17T12:00:24.534Z,26.1
2016-05-17T12:01:24.254Z,26.1
2016-05-17T12:02:27.132Z,25.92
2016-05-17T12:03:23.916Z,26.1
2016-05-17T12:04:24.060Z,26.2
2016-05-17T12:05:23.984Z,26.3
2016-05-17T12:06:23.941Z,26.3
2016-05-17T12:07:24.099Z,26.2
2016-05-17T12:08:24.461Z,26.39
2016-05-17T12:09:24.011Z,26.68
2016-05-17T12:10:23.764Z,26.97
2016-05-17T12:11:23.703Z,26.68
2016-05-17T12:12:23.675Z,26.68
2016-05-17T12:13:23.631Z,26.68
2016-05-17T12:14:23.587Z,26.49
2016-05-17T12:15:23.542Z,26.49
2016-05-17T12:16:29.498Z,26.68
2016-05-17T12:17:23.439Z,26.68
2016-05-17T12:18:23.394Z,26.59
2016-05-17T12:19:26.616Z,26.87
2016-05-17T12:20:23.322Z,26.87
2016-05-17T12:21:23.262Z,26.68
2016-05-17T12:22:23.186Z,26.78
2016-05-17T12:23:23.189Z,27.06
2016-05-17T12:24:26.129Z,26.97
2016-05-17T12:25:23.100Z,26.98
2016-05-17T12:26:23.041Z,26.89
2016-05-17T12:27:23.013Z,26.6
2016-05-17T12:28:25.952Z,26.98
2016-05-17T12:29:23.330Z,26.89
2016-05-17T12:30:22.849Z,27.37
2016-05-17T12:31:22.992Z,27.08
2016-05-17T12:32:22.760Z,27.27
2016-05-17T12:33:22.716Z,27.27
2016-05-17T12:34:22.688Z,26.98
2016-05-17T12:35:22.643Z,26.5
2016-05-17T12:36:22.599Z,26.7
2016-05-17T12:37:25.554Z,26.87
2016-05-17T12:38:22.510Z,26.79
2016-05-17T12:39:22.451Z,26.79
2016-05-17T12:40:22.407Z,26.4
2016-05-17T12:41:31.612Z,26.12
2016-05-17T12:42:22.506Z,26.21
2016-05-17T12:43:22.259Z,26.03
2016-05-17T12:44:22.262Z,25.93
2016-05-17T12:45:25.186Z,25.64
2016-05-17T12:46:22.329Z,25.64
2016-05-17T12:47:22.098Z,25.73
2016-05-17T12:48:22.053Z,25.73
2016-05-17T12:49:22.211Z,25.46
2016-05-17T12:50:21.933Z,25.45
2016-05-17T12:51:21.920Z,25.54
2016-05-17T12:52:21.877Z,25.64
2016-05-17T12:53:21.816Z,25.27
2016-05-17T12:54:21.772Z,25.65
2016-05-17T12:55:21.713Z,25.65
2016-05-17T12:56:24.669Z,25.54